Yorkville, Tennessee
Current Conditions -  °F | °C
As of 10:15 PM on Sunday 23 Nov 2014 (Local Time) from KDYR Reporting Station
Broken Clouds Broken Clouds  
Wind Chill: 61°   Ceiling: 2200
Heat Index: 61°   Visibility: 10mi
Dew Point: 48°   Wind: 8mph
Humidity: 63%   Direction: 190°S
Pressure: 29.41"   Gusts: 17mph
Location:  36.1°N, 89.12°W
Report Text: KDYR 240415Z 19007G15KT 10SM FEW016 BKN022 BKN055 16/09 A2941 RMK AO1
Loading
Personal Weather Stations






























Interactive Weather Map New forecast layout! Learn more

10-Day Weather Forecast

Advertisements
Track Severe Weather on mobile